Terminal Aerodrome Forecast
Issued by NWS Twin Cities, MN

Home | Current Version | Previous Version | Text Only | Print | Product List | Glossary Off
Versions: 1 2 3 4 5 6 7 8 9 10 11 12 13 14 15 16

175
FTUS43 KMPX 101720
TAFSTC
TAF
KSTC 101720Z 1018/1118 03003KT P6SM BKN080 OVC150
     FM110600 VRB02KT P6SM SCT150
     FM111500 21003KT P6SM BKN120=

USA.gov is the U.S. government's official web portal to all federal, state and local government web resources and services.